Time;durP1;ratioP1;P1;durP2;ratioP2;P2;SDS_P1;SDS_P2;PMS_P1;PMS_P2;Temp;Humidity;BMP_temperature;BMP_pressure;BME280_temperature;BME280_humidity;BME280_pressure;Samples;Min_cycle;Max_cycle;Signal;HPM_P1;HPM_P2
2022/05/23 00:01:44;;;;;;;6.37;2.43;;;23.90;71.40;;;;;;6317368;22;20188;-92
2022/05/23 00:04:10;;;;;;;3.43;2.67;;;23.80;71.20;;;;;;6317762;22;20177;-91
2022/05/23 00:06:36;;;;;;;7.37;2.90;;;23.90;70.40;;;;;;6316980;22;20172;-92
2022/05/23 00:09:03;;;;;;;5.50;2.77;;;23.80;71.00;;;;;;6316901;22;20165;-91
2022/05/23 00:11:29;;;;;;;5.40;2.57;;;23.80;71.20;;;;;;6316941;22;20148;-92
2022/05/23 00:13:55;;;;;;;6.27;2.37;;;23.60;72.40;;;;;;6317795;22;20173;-91
2022/05/23 00:16:24;;;;;;;5.10;2.23;;;23.50;73.80;;;;;;6317802;22;20153;-91
2022/05/23 00:18:51;;;;;;;4.60;2.53;;;23.40;73.50;;;;;;6317823;22;20478;-92
2022/05/23 00:21:18;;;;;;;4.63;2.13;;;23.30;74.10;;;;;;6317359;22;20153;-90
2022/05/23 00:23:44;;;;;;;4.27;2.13;;;23.20;74.50;;;;;;6317710;22;20177;-92
2022/05/23 00:26:13;;;;;;;5.40;2.40;;;23.50;74.00;;;;;;6317054;22;20146;-91
2022/05/23 00:28:39;;;;;;;4.67;2.20;;;23.30;74.70;;;;;;6317156;22;20599;-92
2022/05/23 00:31:06;;;;;;;6.97;2.53;;;23.20;75.10;;;;;;6317238;22;20142;-92
2022/05/23 00:36:17;;;;;;;6.30;2.20;;;23.20;75.20;;;;;;6317840;22;20598;-92
2022/05/23 00:38:42;;;;;;;6.20;2.30;;;23.10;75.90;;;;;;6316424;22;20166;-91
2022/05/23 00:44:24;;;;;;;6.30;2.57;;;22.90;76.30;;;;;;6317580;22;20199;-91
2022/05/23 00:47:15;;;;;;;7.60;2.63;;;22.90;77.00;;;;;;6316540;22;20146;-92
2022/05/23 00:49:41;;;;;;;5.90;2.37;;;22.80;77.20;;;;;;6316075;22;20487;-92
2022/05/23 00:52:12;;;;;;;4.73;2.67;;;22.70;77.60;;;;;;6316832;22;20138;-92
2022/05/23 00:54:40;;;;;;;5.00;2.83;;;23.00;76.30;;;;;;6316394;22;20143;-90
2022/05/23 00:57:11;;;;;;;4.33;2.50;;;23.00;76.30;;;;;;6316946;22;20169;-92
2022/05/23 00:59:38;;;;;;;5.27;2.60;;;22.90;77.80;;;;;;6316212;22;20146;-91
2022/05/23 01:02:07;;;;;;;7.90;2.67;;;22.90;77.60;;;;;;6316451;22;20202;-91
2022/05/23 01:04:33;;;;;;;4.37;2.87;;;22.80;77.90;;;;;;6316815;22;20174;-91
2022/05/23 01:06:58;;;;;;;4.40;2.37;;;22.60;78.80;;;;;;6316660;22;20146;-90
2022/05/23 01:09:26;;;;;;;6.90;2.53;;;22.50;79.80;;;;;;6316670;22;20242;-91
2022/05/23 01:11:54;;;;;;;5.33;2.50;;;22.60;79.20;;;;;;6316330;22;20141;-91
2022/05/23 01:14:20;;;;;;;5.00;2.53;;;22.50;77.80;;;;;;6315928;22;20181;-91
2022/05/23 01:16:46;;;;;;;4.60;2.40;;;22.60;78.80;;;;;;6316236;22;20146;-92
2022/05/23 01:19:13;;;;;;;6.43;2.50;;;22.50;79.80;;;;;;6317189;22;20560;-92
2022/05/23 01:21:51;;;;;;;4.03;2.70;;;22.50;79.80;;;;;;6318932;22;20144;-91
2022/05/23 01:24:42;;;;;;;5.30;2.17;;;22.60;78.80;;;;;;6318018;22;20174;-91
2022/05/23 01:27:08;;;;;;;6.20;3.00;;;22.80;78.70;;;;;;6318873;22;20174;-92
2022/05/23 01:29:35;;;;;;;5.60;3.07;;;22.80;79.70;;;;;;6318056;22;20154;-90
2022/05/23 01:32:00;;;;;;;4.23;2.60;;;22.90;78.40;;;;;;6293092;22;20173;-92
2022/05/23 01:34:27;;;;;;;3.67;2.50;;;23.00;78.90;;;;;;6318653;22;20145;-92
2022/05/23 01:36:53;;;;;;;5.17;3.00;;;23.20;77.90;;;;;;6318802;22;20149;-92
2022/05/23 01:39:19;;;;;;;4.63;2.50;;;23.20;78.30;;;;;;6317748;22;20173;-92
2022/05/23 01:41:46;;;;;;;5.33;2.57;;;23.00;78.50;;;;;;6318232;22;20150;-90
2022/05/23 01:44:15;;;;;;;4.80;2.60;;;22.70;78.90;;;;;;6292876;22;20185;-91
2022/05/23 01:46:42;;;;;;;4.10;2.73;;;22.50;80.30;;;;;;6319390;22;20202;-92
2022/05/23 01:49:07;;;;;;;5.57;2.53;;;22.50;80.70;;;;;;6319504;22;20241;-90
2022/05/23 01:51:33;;;;;;;4.23;2.93;;;22.50;80.90;;;;;;6318518;22;20146;-91
2022/05/23 01:53:58;;;;;;;6.07;3.27;;;22.50;80.90;;;;;;6319063;22;20146;-92
2022/05/23 01:56:24;;;;;;;7.53;3.10;;;22.40;80.40;;;;;;6318591;22;20158;-90
2022/05/23 02:01:34;;;;;;;4.87;2.80;;;22.50;80.90;;;;;;6320093;22;20141;-91
2022/05/23 02:04:00;;;;;;;7.13;2.40;;;22.50;80.70;;;;;;6318836;22;20248;-91
2022/05/23 02:06:25;;;;;;;7.07;2.80;;;22.30;81.40;;;;;;6318750;22;20163;-91
2022/05/23 02:08:51;;;;;;;5.93;2.80;;;22.30;82.20;;;;;;6318489;22;20165;-92
2022/05/23 02:11:17;;;;;;;6.40;2.57;;;22.20;82.60;;;;;;6318157;22;20235;-90
2022/05/23 02:13:44;;;;;;;5.63;2.70;;;22.10;82.60;;;;;;6317614;22;20164;-91
2022/05/23 02:16:10;;;;;;;6.20;3.50;;;22.20;83.10;;;;;;6318581;22;20146;-91
2022/05/23 02:18:36;;;;;;;4.97;2.90;;;22.10;83.70;;;;;;6318383;22;20632;-91
2022/05/23 02:21:02;;;;;;;3.40;2.87;;;21.90;84.10;;;;;;6318516;22;20157;-93
2022/05/23 02:23:28;;;;;;;7.10;2.93;;;21.90;84.20;;;;;;6318135;22;20176;-91
2022/05/23 02:25:53;;;;;;;6.13;2.80;;;22.00;84.40;;;;;;6318018;22;20486;-91
2022/05/23 02:28:20;;;;;;;6.27;2.70;;;21.90;85.40;;;;;;6317524;22;20143;-91
2022/05/23 02:30:48;;;;;;;6.63;2.93;;;21.80;85.40;;;;;;6316890;22;20162;-91
2022/05/23 02:33:15;;;;;;;7.47;2.67;;;21.80;86.50;;;;;;6317368;22;20195;-90
2022/05/23 02:35:42;;;;;;;5.37;2.73;;;21.90;85.70;;;;;;6317721;22;20146;-91
2022/05/23 02:38:07;;;;;;;5.83;3.23;;;21.90;85.70;;;;;;6316915;22;20145;-91
2022/05/23 02:40:33;;;;;;;5.27;3.13;;;21.90;86.20;;;;;;6317016;22;20176;-92
2022/05/23 02:42:59;;;;;;;6.10;3.40;;;21.80;86.00;;;;;;6317345;22;20218;-90
2022/05/23 02:45:25;;;;;;;7.17;3.70;;;21.90;85.80;;;;;;6317888;22;20165;-91
2022/05/23 02:47:51;;;;;;;6.63;3.67;;;21.70;86.50;;;;;;6317324;22;20149;-91
2022/05/23 02:50:17;;;;;;;6.23;3.33;;;21.80;85.80;;;;;;6317461;22;20142;-91
2022/05/23 02:52:44;;;;;;;8.70;4.00;;;21.70;86.50;;;;;;6317597;22;20146;-90
2022/05/23 02:55:10;;;;;;;7.37;4.10;;;21.60;86.50;;;;;;6317389;22;20149;-90
2022/05/23 02:57:36;;;;;;;7.37;4.30;;;21.60;86.20;;;;;;6317255;22;20146;-91
2022/05/23 03:00:04;;;;;;;7.20;3.80;;;21.70;85.80;;;;;;6317949;22;20221;-90
2022/05/23 03:05:13;;;;;;;6.40;4.03;;;21.70;86.50;;;;;;6318737;22;20161;-90
2022/05/23 03:07:39;;;;;;;9.47;4.00;;;21.70;87.00;;;;;;6316811;22;20138;-91
2022/05/23 03:10:05;;;;;;;7.27;4.00;;;21.60;87.70;;;;;;6315388;22;20590;-90
2022/05/23 03:12:31;;;;;;;7.20;3.50;;;21.60;87.80;;;;;;6315872;22;20146;-91
2022/05/23 03:14:57;;;;;;;7.03;3.73;;;21.50;88.10;;;;;;6316387;22;20177;-90
2022/05/23 03:17:22;;;;;;;7.07;3.97;;;21.50;89.00;;;;;;6316904;22;20142;-91
2022/05/23 03:19:48;;;;;;;10.17;3.70;;;21.40;89.60;;;;;;6316502;22;20142;-91
2022/05/23 03:27:43;;;;;;;5.50;4.07;;;21.30;90.90;;;;;;6310759;22;20144;-91
2022/05/23 03:30:10;;;;;;;6.30;4.23;;;21.30;90.60;;;;;;6309789;22;20236;-91
2022/05/23 03:32:36;;;;;;;6.57;4.17;;;21.10;91.20;;;;;;6309156;22;20217;-91
2022/05/23 03:35:02;;;;;;;6.23;3.70;;;21.10;91.00;;;;;;6309315;22;20587;-91
2022/05/23 03:37:29;;;;;;;8.20;4.17;;;21.10;91.40;;;;;;6309342;22;20146;-90
2022/05/23 03:39:55;;;;;;;7.70;3.80;;;21.10;91.80;;;;;;6309447;22;20510;-90
2022/05/23 03:42:20;;;;;;;6.33;3.83;;;21.10;91.80;;;;;;6309074;22;20454;-91
2022/05/23 03:44:46;;;;;;;8.70;3.70;;;21.00;92.30;;;;;;6309161;22;20173;-92
2022/05/23 03:47:11;;;;;;;5.60;3.43;;;20.90;92.70;;;;;;6308806;22;20177;-92
2022/05/23 03:49:37;;;;;;;7.87;3.80;;;20.80;93.10;;;;;;6308994;22;20609;-91
2022/05/23 03:52:03;;;;;;;6.10;3.93;;;20.70;93.70;;;;;;6308759;22;20146;-91
2022/05/23 03:54:29;;;;;;;10.37;3.70;;;20.70;94.40;;;;;;6308368;22;20150;-90
2022/05/23 03:57:03;;;;;;;6.17;3.33;;;20.80;94.50;;;;;;6308151;22;20150;-91
2022/05/23 03:59:30;;;;;;;5.73;3.53;;;20.80;94.90;;;;;;6309161;22;20142;-91
2022/05/23 04:01:57;;;;;;;6.77;3.87;;;20.80;95.10;;;;;;6307848;22;20503;-90
2022/05/23 04:04:28;;;;;;;5.37;3.50;;;20.90;94.90;;;;;;6308163;22;20749;-91
2022/05/23 04:07:01;;;;;;;9.23;3.87;;;21.00;95.20;;;;;;6308214;22;20154;-91
2022/05/23 04:09:28;;;;;;;8.77;3.77;;;21.00;95.10;;;;;;6308363;22;20162;-91
2022/05/23 04:11:55;;;;;;;6.93;3.90;;;20.90;95.40;;;;;;6307697;22;20150;-91
2022/05/23 04:14:21;;;;;;;10.40;5.10;;;20.80;95.70;;;;;;6307290;22;20177;-91
2022/05/23 04:16:47;;;;;;;6.90;4.83;;;20.80;95.80;;;;;;6307843;22;20146;-91
2022/05/23 04:19:13;;;;;;;7.83;4.10;;;20.80;95.70;;;;;;6307738;22;20478;-92
2022/05/23 04:21:41;;;;;;;7.43;3.90;;;20.80;95.90;;;;;;6307099;22;20200;-91
2022/05/23 04:24:07;;;;;;;9.07;4.20;;;20.70;96.60;;;;;;6307072;22;20174;-91
2022/05/23 04:26:34;;;;;;;8.67;4.40;;;20.60;97.00;;;;;;6307153;22;20138;-90
2022/05/23 04:28:59;;;;;;;9.40;4.40;;;20.70;97.50;;;;;;6307141;22;20624;-90
2022/05/23 04:31:25;;;;;;;5.83;4.23;;;20.70;97.40;;;;;;6307148;22;20146;-92
2022/05/23 04:36:37;;;;;;;8.30;4.57;;;20.70;97.80;;;;;;6307949;22;20169;-91
2022/05/23 04:39:02;;;;;;;7.67;4.33;;;20.90;98.00;;;;;;6306144;22;20203;-90
2022/05/23 04:41:28;;;;;;;7.10;4.33;;;21.00;97.50;;;;;;6306475;22;20195;-91
2022/05/23 04:43:54;;;;;;;8.27;4.40;;;21.00;97.80;;;;;;6306397;22;20178;-91
2022/05/23 04:46:20;;;;;;;9.07;4.50;;;20.90;98.30;;;;;;6306712;22;20153;-91
2022/05/23 04:51:30;;;;;;;8.17;4.97;;;21.00;98.30;;;;;;6307756;22;20146;-90
2022/05/23 04:53:56;;;;;;;11.07;4.60;;;21.20;97.90;;;;;;6306097;22;20153;-91
2022/05/23 04:56:25;;;;;;;9.93;4.83;;;21.20;97.90;;;;;;6306514;22;20483;-91
2022/05/23 04:58:50;;;;;;;13.47;5.57;;;21.20;97.80;;;;;;6306198;22;20146;-91
2022/05/23 05:01:16;;;;;;;7.90;5.90;;;21.30;97.70;;;;;;6306029;22;20232;-91
2022/05/23 05:03:42;;;;;;;8.60;5.60;;;21.30;97.30;;;;;;6306235;22;20201;-91
2022/05/23 05:06:08;;;;;;;10.37;5.90;;;21.40;97.20;;;;;;6305833;22;20220;-91
2022/05/23 05:08:34;;;;;;;9.13;5.73;;;21.50;96.80;;;;;;6306195;22;20158;-92
2022/05/23 05:11:03;;;;;;;9.93;6.43;;;21.40;96.70;;;;;;6306306;22;20146;-91
2022/05/23 05:13:30;;;;;;;10.37;6.03;;;21.40;96.70;;;;;;6306009;22;20169;-92
2022/05/23 05:15:59;;;;;;;7.33;5.53;;;21.30;96.90;;;;;;6306155;22;20146;-91
2022/05/23 05:18:25;;;;;;;7.90;5.37;;;21.50;96.90;;;;;;6305983;22;20185;-91
2022/05/23 05:20:52;;;;;;;10.33;5.67;;;21.60;97.00;;;;;;6305738;22;20629;-91
2022/05/23 05:23:17;;;;;;;9.70;5.77;;;21.50;97.20;;;;;;6305996;22;20204;-91
2022/05/23 05:25:43;;;;;;;9.20;5.73;;;21.50;97.20;;;;;;6306205;22;20150;-90
2022/05/23 05:28:09;;;;;;;7.87;5.37;;;21.60;97.30;;;;;;6305995;22;20177;-90
2022/05/23 05:30:41;;;;;;;8.67;6.37;;;21.50;97.10;;;;;;6306202;22;20157;-91
2022/05/23 05:33:12;;;;;;;8.30;5.37;;;21.60;96.90;;;;;;6306376;22;20180;-90
2022/05/23 05:36:16;;;;;;;9.20;5.30;;;21.60;97.00;;;;;;6306063;22;20513;-88
2022/05/23 05:38:49;;;;;;;12.13;6.17;;;21.60;96.70;;;;;;6229001;22;20561;-91
2022/05/23 05:41:20;;;;;;;9.73;5.20;;;21.70;96.90;;;;;;6306492;22;20201;-91
2022/05/23 05:43:56;;;;;;;10.33;5.97;;;21.60;97.10;;;;;;6305877;22;20177;-90
2022/05/23 05:46:36;;;;;;;8.40;5.60;;;21.50;97.50;;;;;;6306897;22;20150;-91
2022/05/23 05:49:07;;;;;;;9.37;5.27;;;21.50;97.90;;;;;;6307292;22;20161;-90
2022/05/23 05:51:35;;;;;;;8.73;5.00;;;21.40;98.10;;;;;;6306764;22;20142;-90
2022/05/23 06:13:14;;;;;;;10.57;4.43;;;21.60;99.90;;;;;;6248021;23;20617;-91
2022/05/23 06:15:39;;;;;;;8.27;3.87;;;21.80;98.40;;;;;;6246406;23;20152;-91
2022/05/23 06:18:05;;;;;;;7.77;3.93;;;22.00;97.00;;;;;;6246063;23;20150;-91
2022/05/23 06:20:31;;;;;;;7.03;3.17;;;22.20;96.70;;;;;;6246930;23;20144;-91
2022/05/23 06:22:58;;;;;;;4.67;3.07;;;22.30;95.40;;;;;;6246695;23;20630;-91
2022/05/23 06:25:24;;;;;;;6.73;3.13;;;22.60;94.20;;;;;;6246968;23;20151;-91
2022/05/23 06:27:50;;;;;;;7.17;3.03;;;22.60;93.60;;;;;;6246347;23;20548;-89
2022/05/23 06:30:17;;;;;;;4.87;2.60;;;22.50;93.30;;;;;;6246375;23;20148;-91
2022/05/23 06:42:53;;;;;;;7.53;2.60;;;22.60;92.90;;;;;;6283873;22;20197;-89
2022/05/23 06:45:19;;;;;;;4.73;2.13;;;22.60;92.90;;;;;;6309296;22;20208;-90
2022/05/23 06:47:46;;;;;;;5.97;2.80;;;22.40;93.10;;;;;;6307506;22;20150;-89
2022/05/23 06:50:12;;;;;;;6.30;2.17;;;22.40;93.20;;;;;;6307491;22;20165;-90
2022/05/23 06:52:38;;;;;;;5.53;2.30;;;22.60;92.80;;;;;;6307822;22;20142;-89
2022/05/23 06:55:04;;;;;;;7.23;2.20;;;22.70;92.60;;;;;;6307611;22;20149;-89
2022/05/23 06:57:29;;;;;;;7.23;3.00;;;23.00;91.90;;;;;;6307281;22;20799;-89
2022/05/23 06:59:55;;;;;;;8.47;2.73;;;23.20;92.20;;;;;;6307387;22;20237;-89
2022/05/23 07:02:21;;;;;;;5.57;2.17;;;23.00;93.00;;;;;;6306489;22;20173;-89
2022/05/23 07:12:59;;;;;;;3.47;2.27;;;22.80;95.80;;;;;;6314328;22;20560;-89
2022/05/23 07:15:24;;;;;;;4.03;2.47;;;22.80;96.20;;;;;;6311552;22;20189;-89
2022/05/23 07:17:50;;;;;;;7.07;2.50;;;22.90;96.00;;;;;;6310580;22;20155;-88
2022/05/23 07:20:15;;;;;;;5.97;2.63;;;23.00;95.80;;;;;;6311976;22;20145;-89
2022/05/23 07:22:41;;;;;;;6.77;2.70;;;22.90;95.20;;;;;;6311615;22;20173;-89
2022/05/23 07:25:07;;;;;;;5.60;3.10;;;22.90;95.90;;;;;;6311351;22;20218;-89
2022/05/23 07:27:33;;;;;;;5.47;2.90;;;23.00;96.30;;;;;;6311173;22;20191;-89
2022/05/23 07:29:58;;;;;;;3.93;3.03;;;23.00;97.20;;;;;;6311740;22;20517;-90
2022/05/23 07:32:24;;;;;;;3.70;2.27;;;23.20;96.30;;;;;;6311987;22;20220;-90
2022/05/23 07:34:50;;;;;;;6.47;3.00;;;23.50;96.00;;;;;;6311841;22;20142;-89
2022/05/23 07:37:16;;;;;;;8.00;3.00;;;23.60;96.50;;;;;;6311877;22;20190;-89
2022/05/23 07:39:42;;;;;;;6.33;2.83;;;23.90;95.40;;;;;;6311700;22;20232;-89
2022/05/23 07:42:09;;;;;;;5.93;2.83;;;24.10;95.20;;;;;;6312342;22;20148;-89
2022/05/23 07:44:36;;;;;;;6.47;2.87;;;24.10;93.80;;;;;;6311823;22;20185;-89
2022/05/23 07:47:05;;;;;;;7.13;2.60;;;24.20;93.70;;;;;;6311570;22;20175;-89
2022/05/23 07:49:31;;;;;;;5.17;2.60;;;24.10;94.60;;;;;;6311420;22;20145;-89
2022/05/23 07:51:57;;;;;;;8.63;2.90;;;24.10;92.70;;;;;;6311388;22;20151;-89
2022/05/23 08:02:38;;;;;;;6.33;2.47;;;23.70;91.60;;;;;;6339061;22;20658;-89
2022/05/23 08:05:05;;;;;;;3.90;2.70;;;23.60;91.90;;;;;;6311251;22;20138;-88
2022/05/23 08:07:31;;;;;;;4.17;2.60;;;23.50;92.00;;;;;;6339499;22;20145;-89
2022/05/23 08:10:00;;;;;;;5.73;2.70;;;23.60;92.30;;;;;;6311056;22;20229;-89
2022/05/23 08:12:30;;;;;;;5.73;2.30;;;23.60;92.10;;;;;;6311772;22;20241;-89
2022/05/23 08:14:57;;;;;;;3.37;2.53;;;23.80;91.10;;;;;;6311549;22;20192;-89
2022/05/23 08:17:23;;;;;;;7.67;2.50;;;23.70;91.00;;;;;;6311765;22;20287;-88
2022/05/23 08:19:49;;;;;;;7.60;3.03;;;23.70;90.90;;;;;;6312054;22;20187;-88
2022/05/23 08:22:16;;;;;;;7.17;2.77;;;23.60;91.00;;;;;;6310628;22;20146;-89
2022/05/23 08:24:42;;;;;;;7.50;2.87;;;23.60;90.90;;;;;;6312574;22;20177;-89
2022/05/23 08:27:07;;;;;;;7.40;2.50;;;23.60;91.00;;;;;;6313064;22;20457;-89
2022/05/23 08:29:35;;;;;;;4.67;2.17;;;23.50;91.40;;;;;;6312024;22;20145;-89
2022/05/23 08:32:03;;;;;;;7.67;2.40;;;23.80;91.00;;;;;;6312260;22;20559;-89
2022/05/23 08:34:28;;;;;;;5.37;2.20;;;24.10;90.50;;;;;;6313419;22;20384;-89
2022/05/23 08:36:55;;;;;;;5.67;2.43;;;24.20;89.30;;;;;;6319508;22;20471;-90
2022/05/23 08:39:20;;;;;;;5.67;2.50;;;24.20;89.40;;;;;;6319786;22;20141;-89
2022/05/23 08:41:49;;;;;;;2.50;2.10;;;24.20;89.10;;;;;;6316504;22;20217;-89
2022/05/23 08:44:44;;;;;;;5.00;2.57;;;24.20;87.70;;;;;;6311024;22;20193;-89
2022/05/23 08:48:04;;;;;;;6.13;2.70;;;24.30;87.30;;;;;;6310831;22;20160;-89
2022/05/23 08:50:52;;;;;;;4.83;2.47;;;24.40;87.40;;;;;;6158228;23;20168;-89
2022/05/23 08:53:24;;;;;;;5.00;2.00;;;24.50;85.50;;;;;;6296164;22;20173;-90
2022/05/23 08:55:59;;;;;;;3.77;1.90;;;24.40;85.90;;;;;;6311953;22;20158;-90
2022/05/23 08:58:40;;;;;;;6.37;2.33;;;24.60;85.60;;;;;;6311337;22;20224;-90
2022/05/23 09:01:13;;;;;;;3.53;1.77;;;24.80;85.50;;;;;;6311963;22;20145;-90
2022/05/23 09:03:51;;;;;;;5.87;1.93;;;25.10;84.70;;;;;;6310769;22;20180;-90
2022/05/23 09:06:31;;;;;;;3.63;1.50;;;25.40;83.60;;;;;;6311260;22;20152;-90
2022/05/23 09:09:06;;;;;;;6.97;2.03;;;25.90;83.60;;;;;;6311467;22;20148;-90
2022/05/23 09:11:39;;;;;;;5.30;2.10;;;26.10;81.50;;;;;;6311045;22;20212;-90
2022/05/23 09:14:07;;;;;;;5.00;1.97;;;26.40;81.30;;;;;;6310793;22;20188;-90
2022/05/23 09:16:52;;;;;;;3.30;1.73;;;26.70;80.50;;;;;;6312066;22;20149;-90
2022/05/23 09:19:31;;;;;;;4.73;2.00;;;27.00;80.20;;;;;;6311256;22;20149;-90
2022/05/23 09:22:20;;;;;;;2.30;1.40;;;27.00;80.60;;;;;;6311012;22;20156;-90
2022/05/23 09:24:47;;;;;;;3.37;1.57;;;27.10;80.20;;;;;;6309833;22;20489;-91
2022/05/23 09:27:17;;;;;;;3.53;1.77;;;27.30;78.70;;;;;;6311103;22;20175;-89
2022/05/23 09:29:52;;;;;;;4.43;2.00;;;27.50;78.20;;;;;;6311177;22;20157;-90
2022/05/23 09:32:23;;;;;;;6.80;1.93;;;27.40;78.20;;;;;;6311595;22;20152;-90
2022/05/23 09:35:02;;;;;;;5.30;2.50;;;27.50;81.00;;;;;;6310912;22;20172;-90
2022/05/23 09:37:42;;;;;;;3.63;1.73;;;27.50;80.20;;;;;;6311192;22;20145;-90
2022/05/23 09:40:21;;;;;;;4.60;2.37;;;27.20;76.80;;;;;;6311303;22;20473;-90
2022/05/23 09:48:19;;;;;;;2.00;1.40;;;27.10;77.50;;;;;;6340633;22;20217;-90
2022/05/23 09:51:01;;;;;;;3.33;1.53;;;26.80;76.70;;;;;;6313249;22;20149;-90
2022/05/23 09:53:35;;;;;;;1.87;1.30;;;26.70;77.60;;;;;;6313206;22;20151;-90
2022/05/23 09:56:22;;;;;;;3.73;1.30;;;26.70;76.50;;;;;;6312172;22;20144;-89
2022/05/23 09:58:48;;;;;;;2.57;1.00;;;26.90;76.40;;;;;;6312615;22;20154;-90
2022/05/23 10:01:25;;;;;;;2.83;1.00;;;26.80;74.30;;;;;;6312345;22;20152;-90
2022/05/23 10:03:51;;;;;;;2.17;1.23;;;26.80;76.20;;;;;;6313213;22;20177;-90
2022/05/23 10:06:17;;;;;;;3.13;1.30;;;26.80;76.70;;;;;;6312517;22;20585;-90
2022/05/23 10:08:50;;;;;;;1.47;1.30;;;26.70;78.10;;;;;;6312197;22;20149;-90
2022/05/23 10:11:19;;;;;;;3.23;1.57;;;26.60;79.00;;;;;;6312374;22;20154;-90
2022/05/23 10:13:50;;;;;;;4.67;1.90;;;26.40;80.30;;;;;;6313051;22;20204;-89
2022/05/23 10:16:54;;;;;;;2.77;1.60;;;26.30;81.40;;;;;;6312403;22;20144;-90
2022/05/23 10:19:39;;;;;;;3.80;1.80;;;26.20;82.20;;;;;;6312038;22;20160;-90
2022/05/23 10:22:18;;;;;;;2.60;1.50;;;26.00;83.00;;;;;;6312527;22;20559;-89
2022/05/23 10:24:57;;;;;;;2.57;1.50;;;26.00;82.60;;;;;;6312179;22;20169;-88
2022/05/23 10:27:35;;;;;;;3.37;1.30;;;26.10;83.30;;;;;;6313124;22;20475;-90
2022/05/23 10:30:06;;;;;;;2.47;1.67;;;26.20;83.50;;;;;;6311765;22;20191;-90
2022/05/23 10:32:52;;;;;;;2.30;1.60;;;26.30;83.40;;;;;;6312155;22;20489;-89
2022/05/23 10:35:24;;;;;;;4.07;1.67;;;26.20;84.20;;;;;;6312774;22;20235;-90
2022/05/23 10:37:51;;;;;;;2.93;1.83;;;26.20;84.20;;;;;;6312481;22;20153;-90
2022/05/23 10:43:19;;;;;;;3.97;1.70;;;26.60;87.20;;;;;;6339752;22;20612;-90
2022/05/23 10:45:54;;;;;;;7.40;1.83;;;26.80;86.90;;;;;;6312720;22;20153;-90
2022/05/23 10:48:55;;;;;;;2.80;1.97;;;26.80;84.70;;;;;;6312342;22;20159;-90
2022/05/23 10:51:47;;;;;;;5.67;2.20;;;26.90;84.90;;;;;;6311283;22;20153;-90
2022/05/23 10:54:15;;;;;;;6.23;2.10;;;27.00;83.30;;;;;;6312392;22;20169;-90
2022/05/23 10:57:07;;;;;;;6.70;1.90;;;26.90;83.00;;;;;;6312603;22;20185;-90
2022/05/23 10:59:45;;;;;;;4.50;2.10;;;26.90;83.50;;;;;;6243589;22;20157;-88
2022/05/23 11:02:37;;;;;;;5.33;2.13;;;26.80;83.80;;;;;;6311178;22;20148;-90
2022/05/23 11:05:23;;;;;;;4.37;2.20;;;26.80;84.20;;;;;;6312544;22;20181;-89
2022/05/23 11:08:10;;;;;;;5.27;2.43;;;26.80;84.20;;;;;;6311935;22;20145;-90
2022/05/23 11:10:46;;;;;;;4.70;2.17;;;26.80;84.60;;;;;;6312141;22;20152;-90
2022/05/23 11:13:21;;;;;;;4.37;2.27;;;26.50;85.60;;;;;;6311838;22;20248;-90
2022/05/23 11:16:08;;;;;;;5.73;2.23;;;26.20;86.70;;;;;;6312207;22;20145;-90
2022/05/23 11:18:58;;;;;;;5.37;2.33;;;26.10;87.50;;;;;;6312495;22;20158;-90
2022/05/23 11:21:42;;;;;;;3.23;2.03;;;25.80;88.60;;;;;;6311738;22;20145;-90
2022/05/23 11:24:13;;;;;;;5.07;2.63;;;25.50;89.50;;;;;;6311401;22;20666;-90
2022/05/23 11:26:54;;;;;;;4.53;2.40;;;25.10;90.90;;;;;;6311585;22;20145;-90
2022/05/23 11:34:50;;;;;;;4.70;2.30;;;24.00;99.90;;;;;;6350358;22;20435;-90
2022/05/23 11:39:57;;;;;;;4.90;2.77;;;23.50;99.90;;;;;;6350526;22;20134;-90
2022/05/23 11:42:53;;;;;;;5.97;2.87;;;23.50;99.90;;;;;;6311333;22;20532;-90
2022/05/23 11:48:34;;;;;;;8.13;3.20;;;23.20;99.90;;;;;;6338860;22;20171;-90
2022/05/23 11:51:36;;;;;;;9.27;4.33;;;23.00;99.90;;;;;;6311238;22;20570;-89
2022/05/23 11:54:06;;;;;;;5.80;3.30;;;23.00;99.90;;;;;;6311009;22;20144;-89
2022/05/23 11:56:59;;;;;;;5.23;3.23;;;22.80;99.90;;;;;;6311951;22;20163;-88
2022/05/23 11:59:25;;;;;;;6.37;4.53;;;22.80;99.90;;;;;;6311227;22;20166;-88
2022/05/23 12:02:12;;;;;;;8.03;4.27;;;22.80;99.90;;;;;;6310937;22;20181;-90
2022/05/23 12:04:50;;;;;;;11.20;5.07;;;22.90;99.90;;;;;;6310542;22;20220;-89
2022/05/23 12:07:31;;;;;;;11.37;5.53;;;23.00;99.90;;;;;;6311248;22;20149;-90
2022/05/23 12:10:36;;;;;;;8.83;4.23;;;23.00;99.90;;;;;;6311936;22;20236;-90
2022/05/23 12:13:11;;;;;;;7.10;4.47;;;23.00;99.90;;;;;;6286037;22;20173;-90
2022/05/23 12:15:43;;;;;;;6.40;3.80;;;23.00;99.90;;;;;;6311180;22;20183;-89
2022/05/23 12:18:29;;;;;;;5.67;3.60;;;23.10;99.90;;;;;;6311801;22;20149;-89
2022/05/23 12:20:56;;;;;;;6.53;3.80;;;23.10;99.90;;;;;;6311555;22;20153;-89
2022/05/23 12:23:43;;;;;;;6.83;3.90;;;23.00;99.90;;;;;;6311804;22;20249;-90
2022/05/23 12:26:09;;;;;;;9.33;3.70;;;23.20;99.90;;;;;;6310635;22;20145;-89
2022/05/23 12:28:55;;;;;;;7.27;3.90;;;23.10;99.90;;;;;;6311842;22;20164;-89
2022/05/23 12:31:36;;;;;;;7.70;3.97;;;23.10;99.90;;;;;;6311693;22;20149;-89
2022/05/23 12:34:02;;;;;;;7.60;4.43;;;23.20;99.90;;;;;;6312024;22;20153;-90
2022/05/23 12:36:31;;;;;;;11.10;5.17;;;23.10;99.90;;;;;;6310854;22;20192;-90
2022/05/23 12:39:04;;;;;;;12.50;5.57;;;23.30;99.90;;;;;;6311493;22;20527;-90
2022/05/23 12:41:51;;;;;;;11.07;6.03;;;23.30;99.90;;;;;;6311853;22;20258;-89
2022/05/23 12:44:54;;;;;;;12.53;5.53;;;23.20;99.90;;;;;;6310924;22;20266;-89
2022/05/23 12:47:54;;;;;;;13.40;6.23;;;23.10;99.90;;;;;;6310613;22;20161;-89
2022/05/23 12:50:36;;;;;;;13.63;6.27;;;23.20;99.90;;;;;;6310971;22;20163;-89
2022/05/23 12:54:00;;;;;;;15.67;6.90;;;23.10;99.90;;;;;;6311321;22;20149;-89
2022/05/23 12:56:46;;;;;;;15.67;6.70;;;23.00;99.90;;;;;;6227366;22;20464;-89
2022/05/23 12:59:35;;;;;;;11.47;7.30;;;22.90;99.90;;;;;;6310615;22;20578;-89
2022/05/23 13:02:07;;;;;;;14.00;7.17;;;22.90;99.90;;;;;;6311537;22;20157;-89
2022/05/23 13:04:39;;;;;;;14.43;8.60;;;22.90;99.90;;;;;;6310508;22;20259;-89
2022/05/23 13:07:23;;;;;;;15.07;8.60;;;22.70;99.90;;;;;;6311007;22;20227;-88
2022/05/23 13:09:52;;;;;;;29.63;10.80;;;22.40;99.90;;;;;;6310150;22;20156;-88
2022/05/23 13:12:35;;;;;;;19.03;10.87;;;21.70;99.90;;;;;;6311100;22;20160;-89
2022/05/23 13:15:01;;;;;;;21.03;12.53;;;21.30;99.90;;;;;;6311478;22;20152;-89
2022/05/23 13:17:45;;;;;;;22.33;14.03;;;21.30;99.90;;;;;;6313656;22;20157;-89
2022/05/23 13:23:11;;;;;;;20.80;14.40;;;21.20;99.90;;;;;;6340348;22;20199;-90
2022/05/23 13:25:37;;;;;;;22.97;14.73;;;21.20;99.90;;;;;;6312536;22;20145;-89
2022/05/23 13:28:08;;;;;;;21.70;15.27;;;21.20;99.90;;;;;;6340682;22;20528;-90
2022/05/23 13:30:42;;;;;;;18.87;14.20;;;21.30;99.90;;;;;;6312506;22;20149;-90
2022/05/23 13:33:15;;;;;;;16.20;13.33;;;21.50;99.90;;;;;;6340565;22;20136;-89
2022/05/23 13:35:46;;;;;;;17.27;13.93;;;21.60;99.90;;;;;;6313245;22;20150;-89
2022/05/23 13:38:23;;;;;;;19.80;14.23;;;21.60;99.90;;;;;;6313425;22;20232;-90
2022/05/23 13:41:25;;;;;;;16.13;12.67;;;21.60;99.90;;;;;;6312527;22;20149;-90
2022/05/23 13:43:51;;;;;;;14.53;12.80;;;21.60;99.90;;;;;;6266069;22;20506;-89
2022/05/23 13:46:25;;;;;;;16.70;12.80;;;21.70;99.90;;;;;;6313131;22;20571;-90
2022/05/23 13:48:52;;;;;;;18.67;13.47;;;22.10;99.90;;;;;;6312900;22;20181;-89
2022/05/23 13:51:28;;;;;;;17.67;13.43;;;22.00;99.90;;;;;;6311758;22;20176;-90
2022/05/23 13:54:07;;;;;;;15.47;13.60;;;22.10;99.90;;;;;;6313256;22;20590;-89
2022/05/23 13:56:37;;;;;;;15.77;11.53;;;22.50;99.90;;;;;;6312609;22;20454;-90
2022/05/23 13:59:08;;;;;;;15.97;12.00;;;22.50;99.90;;;;;;6312870;22;20152;-89
2022/05/23 14:01:44;;;;;;;16.17;11.00;;;22.60;99.90;;;;;;6311955;22;20810;-89
2022/05/23 14:04:12;;;;;;;17.67;11.77;;;22.50;99.90;;;;;;6313096;22;20618;-90
2022/05/23 14:06:45;;;;;;;21.77;16.93;;;22.50;99.90;;;;;;6312940;22;20195;-90
2022/05/23 14:09:11;;;;;;;13.40;10.33;;;22.60;99.90;;;;;;6312731;22;20146;-91
2022/05/23 14:11:44;;;;;;;16.23;12.00;;;22.50;99.90;;;;;;6311976;22;20141;-89
2022/05/23 14:14:15;;;;;;;27.43;12.63;;;22.30;99.90;;;;;;6312123;22;20180;-88
2022/05/23 14:16:48;;;;;;;18.93;13.33;;;21.80;99.90;;;;;;6339502;22;20152;-88
2022/05/23 14:19:20;;;;;;;20.73;13.80;;;20.90;99.90;;;;;;6312582;22;20152;-88
2022/05/23 14:21:46;;;;;;;21.70;15.43;;;20.60;99.90;;;;;;6311922;22;20164;-88
2022/05/23 14:24:27;;;;;;;21.80;16.23;;;20.50;99.90;;;;;;6312210;22;20181;-89
2022/05/23 14:27:18;;;;;;;26.40;17.00;;;20.50;99.90;;;;;;6311675;22;20164;-89
2022/05/23 14:30:04;;;;;;;25.33;17.77;;;20.70;99.90;;;;;;6312827;22;20145;-91
2022/05/23 14:32:30;;;;;;;23.23;18.90;;;20.70;99.90;;;;;;6311207;22;20163;-89
2022/05/23 14:35:07;;;;;;;28.53;20.40;;;20.80;99.90;;;;;;6312645;22;20519;-91
2022/05/23 14:37:33;;;;;;;29.53;21.50;;;20.80;99.90;;;;;;6312840;22;20175;-90